sensor_id;sensor_type;location;lat;lon;timestamp;P1;durP1;ratioP1;P2;durP2;ratioP2
17398;SDS011;8817;48.170;8.592;2023-04-28T00:02:07;5.88;;;5.47;;
17398;SDS011;8817;48.170;8.592;2023-04-28T00:04:34;6.38;;;5.97;;
17398;SDS011;8817;48.170;8.592;2023-04-28T00:07:02;6.15;;;5.75;;
17398;SDS011;8817;48.170;8.592;2023-04-28T00:09:30;6.00;;;5.60;;
17398;SDS011;8817;48.170;8.592;2023-04-28T00:11:56;6.43;;;6.00;;
17398;SDS011;8817;48.170;8.592;2023-04-28T00:14:24;6.22;;;5.72;;
17398;SDS011;8817;48.170;8.592;2023-04-28T00:16:50;6.15;;;5.75;;
17398;SDS011;8817;48.170;8.592;2023-04-28T00:19:20;6.22;;;5.70;;
17398;SDS011;8817;48.170;8.592;2023-04-28T00:21:47;6.30;;;5.90;;
17398;SDS011;8817;48.170;8.592;2023-04-28T00:24:16;6.43;;;6.00;;
17398;SDS011;8817;48.170;8.592;2023-04-28T00:26:43;6.40;;;6.00;;
17398;SDS011;8817;48.170;8.592;2023-04-28T00:29:09;5.80;;;5.50;;
17398;SDS011;8817;48.170;8.592;2023-04-28T00:31:36;6.10;;;5.78;;
17398;SDS011;8817;48.170;8.592;2023-04-28T00:34:03;7.13;;;5.80;;
17398;SDS011;8817;48.170;8.592;2023-04-28T00:36:30;6.20;;;5.80;;
17398;SDS011;8817;48.170;8.592;2023-04-28T00:38:57;7.03;;;6.22;;
17398;SDS011;8817;48.170;8.592;2023-04-28T00:41:25;6.10;;;5.80;;
17398;SDS011;8817;48.170;8.592;2023-04-28T00:43:52;6.43;;;6.00;;
17398;SDS011;8817;48.170;8.592;2023-04-28T00:46:20;6.00;;;5.70;;
17398;SDS011;8817;48.170;8.592;2023-04-28T00:48:49;6.40;;;6.00;;
17398;SDS011;8817;48.170;8.592;2023-04-28T00:51:16;6.35;;;6.00;;
17398;SDS011;8817;48.170;8.592;2023-04-28T00:53:43;6.53;;;6.03;;
17398;SDS011;8817;48.170;8.592;2023-04-28T00:56:10;6.57;;;6.07;;
17398;SDS011;8817;48.170;8.592;2023-04-28T00:58:38;6.40;;;6.00;;
17398;SDS011;8817;48.170;8.592;2023-04-28T01:01:06;6.43;;;6.10;;
17398;SDS011;8817;48.170;8.592;2023-04-28T01:03:34;7.25;;;6.22;;
17398;SDS011;8817;48.170;8.592;2023-04-28T01:06:03;7.03;;;6.43;;
17398;SDS011;8817;48.170;8.592;2023-04-28T01:08:30;6.50;;;6.05;;
17398;SDS011;8817;48.170;8.592;2023-04-28T01:10:58;6.45;;;5.85;;
17398;SDS011;8817;48.170;8.592;2023-04-28T01:13:26;6.40;;;6.00;;
17398;SDS011;8817;48.170;8.592;2023-04-28T01:15:54;6.43;;;6.00;;
17398;SDS011;8817;48.170;8.592;2023-04-28T01:18:21;6.70;;;6.20;;
17398;SDS011;8817;48.170;8.592;2023-04-28T01:20:48;6.63;;;5.78;;
17398;SDS011;8817;48.170;8.592;2023-04-28T01:23:16;6.18;;;5.88;;
17398;SDS011;8817;48.170;8.592;2023-04-28T01:25:44;6.68;;;6.18;;
17398;SDS011;8817;48.170;8.592;2023-04-28T01:28:11;6.40;;;6.00;;
17398;SDS011;8817;48.170;8.592;2023-04-28T01:30:38;6.20;;;5.80;;
17398;SDS011;8817;48.170;8.592;2023-04-28T01:33:05;6.55;;;6.00;;
17398;SDS011;8817;48.170;8.592;2023-04-28T01:35:32;7.70;;;6.30;;
17398;SDS011;8817;48.170;8.592;2023-04-28T01:37:59;7.63;;;6.30;;
17398;SDS011;8817;48.170;8.592;2023-04-28T01:40:26;6.50;;;6.10;;
17398;SDS011;8817;48.170;8.592;2023-04-28T01:42:54;6.40;;;6.00;;
17398;SDS011;8817;48.170;8.592;2023-04-28T01:45:21;6.30;;;5.90;;
17398;SDS011;8817;48.170;8.592;2023-04-28T01:47:48;6.18;;;5.85;;
17398;SDS011;8817;48.170;8.592;2023-04-28T01:50:15;6.20;;;5.90;;
17398;SDS011;8817;48.170;8.592;2023-04-28T01:52:42;6.60;;;6.20;;
17398;SDS011;8817;48.170;8.592;2023-04-28T01:55:21;7.23;;;6.50;;
17398;SDS011;8817;48.170;8.592;2023-04-28T01:58:07;6.50;;;6.10;;
17398;SDS011;8817;48.170;8.592;2023-04-28T02:00:34;7.18;;;6.38;;
17398;SDS011;8817;48.170;8.592;2023-04-28T02:03:01;6.60;;;6.20;;
17398;SDS011;8817;48.170;8.592;2023-04-28T02:05:27;7.00;;;6.40;;
17398;SDS011;8817;48.170;8.592;2023-04-28T02:07:54;6.73;;;6.20;;
17398;SDS011;8817;48.170;8.592;2023-04-28T02:10:22;6.60;;;6.20;;
17398;SDS011;8817;48.170;8.592;2023-04-28T02:12:49;6.90;;;6.38;;
17398;SDS011;8817;48.170;8.592;2023-04-28T02:15:20;6.80;;;6.30;;
17398;SDS011;8817;48.170;8.592;2023-04-28T02:17:47;6.38;;;6.00;;
17398;SDS011;8817;48.170;8.592;2023-04-28T02:20:14;6.80;;;6.40;;
17398;SDS011;8817;48.170;8.592;2023-04-28T02:22:41;6.97;;;6.40;;
17398;SDS011;8817;48.170;8.592;2023-04-28T02:25:08;6.70;;;6.30;;
17398;SDS011;8817;48.170;8.592;2023-04-28T02:27:35;6.93;;;6.47;;
17398;SDS011;8817;48.170;8.592;2023-04-28T02:30:02;7.00;;;6.60;;
17398;SDS011;8817;48.170;8.592;2023-04-28T02:32:31;6.97;;;6.57;;
17398;SDS011;8817;48.170;8.592;2023-04-28T02:34:58;7.13;;;6.60;;
17398;SDS011;8817;48.170;8.592;2023-04-28T02:37:25;6.60;;;6.20;;
17398;SDS011;8817;48.170;8.592;2023-04-28T02:39:52;7.18;;;6.35;;
17398;SDS011;8817;48.170;8.592;2023-04-28T02:42:18;6.80;;;6.40;;
17398;SDS011;8817;48.170;8.592;2023-04-28T02:44:45;7.10;;;6.60;;
17398;SDS011;8817;48.170;8.592;2023-04-28T02:47:12;7.18;;;6.68;;
17398;SDS011;8817;48.170;8.592;2023-04-28T02:49:40;7.57;;;6.80;;
17398;SDS011;8817;48.170;8.592;2023-04-28T02:52:07;7.00;;;6.60;;
17398;SDS011;8817;48.170;8.592;2023-04-28T02:54:34;7.50;;;7.00;;
17398;SDS011;8817;48.170;8.592;2023-04-28T02:57:01;7.53;;;6.70;;
17398;SDS011;8817;48.170;8.592;2023-04-28T02:59:28;7.07;;;6.57;;
17398;SDS011;8817;48.170;8.592;2023-04-28T03:01:56;7.93;;;7.33;;
17398;SDS011;8817;48.170;8.592;2023-04-28T03:04:22;7.65;;;7.05;;
17398;SDS011;8817;48.170;8.592;2023-04-28T03:06:51;7.77;;;7.17;;
17398;SDS011;8817;48.170;8.592;2023-04-28T03:09:18;7.77;;;7.07;;
17398;SDS011;8817;48.170;8.592;2023-04-28T03:11:45;7.93;;;7.13;;
17398;SDS011;8817;48.170;8.592;2023-04-28T03:14:12;7.77;;;7.07;;
17398;SDS011;8817;48.170;8.592;2023-04-28T03:16:39;8.20;;;7.60;;
17398;SDS011;8817;48.170;8.592;2023-04-28T03:19:05;7.57;;;7.17;;
17398;SDS011;8817;48.170;8.592;2023-04-28T03:21:32;7.43;;;7.00;;
17398;SDS011;8817;48.170;8.592;2023-04-28T03:24:00;8.10;;;7.50;;
17398;SDS011;8817;48.170;8.592;2023-04-28T03:26:27;7.70;;;7.20;;
17398;SDS011;8817;48.170;8.592;2023-04-28T03:28:54;8.10;;;7.40;;
17398;SDS011;8817;48.170;8.592;2023-04-28T03:31:21;7.97;;;7.20;;
17398;SDS011;8817;48.170;8.592;2023-04-28T03:33:48;7.87;;;7.17;;
17398;SDS011;8817;48.170;8.592;2023-04-28T03:36:15;8.03;;;7.43;;
17398;SDS011;8817;48.170;8.592;2023-04-28T03:38:42;8.20;;;7.60;;
17398;SDS011;8817;48.170;8.592;2023-04-28T03:41:10;8.10;;;7.43;;
17398;SDS011;8817;48.170;8.592;2023-04-28T03:43:37;8.38;;;7.78;;
17398;SDS011;8817;48.170;8.592;2023-04-28T03:46:04;8.13;;;7.53;;
17398;SDS011;8817;48.170;8.592;2023-04-28T03:48:31;8.47;;;7.77;;
17398;SDS011;8817;48.170;8.592;2023-04-28T03:50:58;8.20;;;7.50;;
17398;SDS011;8817;48.170;8.592;2023-04-28T03:53:25;9.97;;;8.20;;
17398;SDS011;8817;48.170;8.592;2023-04-28T03:55:52;8.63;;;7.80;;
17398;SDS011;8817;48.170;8.592;2023-04-28T03:58:20;9.07;;;7.47;;
17398;SDS011;8817;48.170;8.592;2023-04-28T04:00:47;8.37;;;7.67;;
17398;SDS011;8817;48.170;8.592;2023-04-28T04:03:14;8.50;;;7.80;;
17398;SDS011;8817;48.170;8.592;2023-04-28T04:05:41;8.40;;;7.70;;
17398;SDS011;8817;48.170;8.592;2023-04-28T04:08:08;8.70;;;7.97;;
17398;SDS011;8817;48.170;8.592;2023-04-28T04:10:35;8.50;;;7.90;;
17398;SDS011;8817;48.170;8.592;2023-04-28T04:13:02;8.80;;;8.00;;
17398;SDS011;8817;48.170;8.592;2023-04-28T04:15:30;8.87;;;7.97;;
17398;SDS011;8817;48.170;8.592;2023-04-28T04:17:57;8.40;;;7.80;;
17398;SDS011;8817;48.170;8.592;2023-04-28T04:20:24;8.60;;;7.90;;
17398;SDS011;8817;48.170;8.592;2023-04-28T04:22:50;8.30;;;7.70;;
17398;SDS011;8817;48.170;8.592;2023-04-28T04:25:17;8.43;;;7.83;;
17398;SDS011;8817;48.170;8.592;2023-04-28T04:27:44;8.90;;;8.30;;
17398;SDS011;8817;48.170;8.592;2023-04-28T04:30:11;8.70;;;8.10;;
17398;SDS011;8817;48.170;8.592;2023-04-28T04:32:39;8.73;;;8.03;;
17398;SDS011;8817;48.170;8.592;2023-04-28T04:35:07;9.03;;;8.33;;
17398;SDS011;8817;48.170;8.592;2023-04-28T04:37:34;8.97;;;8.17;;
17398;SDS011;8817;48.170;8.592;2023-04-28T04:40:02;8.87;;;8.03;;
17398;SDS011;8817;48.170;8.592;2023-04-28T04:42:29;8.60;;;8.00;;
17398;SDS011;8817;48.170;8.592;2023-04-28T04:44:56;9.00;;;8.30;;
17398;SDS011;8817;48.170;8.592;2023-04-28T04:47:22;8.70;;;8.00;;
17398;SDS011;8817;48.170;8.592;2023-04-28T04:49:51;9.23;;;8.37;;
17398;SDS011;8817;48.170;8.592;2023-04-28T04:52:19;8.83;;;8.13;;
17398;SDS011;8817;48.170;8.592;2023-04-28T04:54:46;9.03;;;8.23;;
17398;SDS011;8817;48.170;8.592;2023-04-28T04:57:13;9.17;;;8.37;;
17398;SDS011;8817;48.170;8.592;2023-04-28T04:59:40;9.20;;;8.37;;
17398;SDS011;8817;48.170;8.592;2023-04-28T05:02:06;9.27;;;8.53;;
17398;SDS011;8817;48.170;8.592;2023-04-28T05:04:33;9.60;;;8.80;;
17398;SDS011;8817;48.170;8.592;2023-04-28T05:07:02;9.27;;;8.50;;
17398;SDS011;8817;48.170;8.592;2023-04-28T05:09:28;9.70;;;8.80;;
17398;SDS011;8817;48.170;8.592;2023-04-28T05:11:56;9.77;;;8.98;;
17398;SDS011;8817;48.170;8.592;2023-04-28T05:14:23;9.63;;;8.83;;
17398;SDS011;8817;48.170;8.592;2023-04-28T05:16:50;9.47;;;8.87;;
17398;SDS011;8817;48.170;8.592;2023-04-28T05:19:16;10.00;;;9.10;;
17398;SDS011;8817;48.170;8.592;2023-04-28T05:21:43;9.33;;;8.53;;
17398;SDS011;8817;48.170;8.592;2023-04-28T05:24:13;8.90;;;8.30;;
17398;SDS011;8817;48.170;8.592;2023-04-28T05:26:40;9.90;;;9.10;;
17398;SDS011;8817;48.170;8.592;2023-04-28T05:29:07;9.13;;;8.50;;
17398;SDS011;8817;48.170;8.592;2023-04-28T05:31:34;10.47;;;9.47;;
17398;SDS011;8817;48.170;8.592;2023-04-28T05:34:01;9.63;;;8.83;;
17398;SDS011;8817;48.170;8.592;2023-04-28T05:36:28;9.67;;;8.73;;
17398;SDS011;8817;48.170;8.592;2023-04-28T05:38:55;9.17;;;8.47;;
17398;SDS011;8817;48.170;8.592;2023-04-28T05:41:24;9.10;;;8.40;;
17398;SDS011;8817;48.170;8.592;2023-04-28T05:43:51;9.20;;;8.50;;
17398;SDS011;8817;48.170;8.592;2023-04-28T05:46:17;9.20;;;8.50;;
17398;SDS011;8817;48.170;8.592;2023-04-28T05:48:44;8.83;;;8.23;;
17398;SDS011;8817;48.170;8.592;2023-04-28T05:51:11;9.30;;;8.50;;
17398;SDS011;8817;48.170;8.592;2023-04-28T05:53:38;9.20;;;8.40;;
17398;SDS011;8817;48.170;8.592;2023-04-28T05:56:06;10.70;;;8.83;;
17398;SDS011;8817;48.170;8.592;2023-04-28T05:58:34;9.00;;;8.30;;
17398;SDS011;8817;48.170;8.592;2023-04-28T06:01:02;9.87;;;8.07;;
17398;SDS011;8817;48.170;8.592;2023-04-28T06:03:29;8.67;;;8.10;;
17398;SDS011;8817;48.170;8.592;2023-04-28T06:05:56;9.50;;;8.60;;
17398;SDS011;8817;48.170;8.592;2023-04-28T06:08:23;8.97;;;8.40;;
17398;SDS011;8817;48.170;8.592;2023-04-28T06:10:50;9.80;;;8.90;;
17398;SDS011;8817;48.170;8.592;2023-04-28T06:13:16;9.07;;;8.37;;
17398;SDS011;8817;48.170;8.592;2023-04-28T06:15:45;9.53;;;8.70;;
17398;SDS011;8817;48.170;8.592;2023-04-28T06:18:12;9.50;;;8.70;;
17398;SDS011;8817;48.170;8.592;2023-04-28T06:20:40;9.27;;;8.47;;
17398;SDS011;8817;48.170;8.592;2023-04-28T06:23:07;9.30;;;8.60;;
17398;SDS011;8817;48.170;8.592;2023-04-28T06:25:34;9.20;;;8.60;;
17398;SDS011;8817;48.170;8.592;2023-04-28T06:28:01;9.40;;;8.70;;
17398;SDS011;8817;48.170;8.592;2023-04-28T06:30:28;9.53;;;8.83;;
17398;SDS011;8817;48.170;8.592;2023-04-28T06:32:57;8.97;;;8.47;;
17398;SDS011;8817;48.170;8.592;2023-04-28T06:35:24;9.30;;;8.60;;
17398;SDS011;8817;48.170;8.592;2023-04-28T06:37:51;9.57;;;8.87;;
17398;SDS011;8817;48.170;8.592;2023-04-28T06:40:18;9.30;;;8.50;;
17398;SDS011;8817;48.170;8.592;2023-04-28T06:42:45;9.77;;;8.87;;
17398;SDS011;8817;48.170;8.592;2023-04-28T06:45:11;9.00;;;8.47;;
17398;SDS011;8817;48.170;8.592;2023-04-28T06:47:38;9.53;;;8.80;;
17398;SDS011;8817;48.170;8.592;2023-04-28T06:50:07;9.60;;;8.80;;
17398;SDS011;8817;48.170;8.592;2023-04-28T06:52:34;9.23;;;8.63;;
17398;SDS011;8817;48.170;8.592;2023-04-28T06:55:03;9.83;;;8.80;;
17398;SDS011;8817;48.170;8.592;2023-04-28T06:57:30;9.57;;;8.77;;
17398;SDS011;8817;48.170;8.592;2023-04-28T06:59:57;9.40;;;8.70;;
17398;SDS011;8817;48.170;8.592;2023-04-28T07:02:24;8.90;;;8.30;;
17398;SDS011;8817;48.170;8.592;2023-04-28T07:04:51;10.90;;;8.70;;
17398;SDS011;8817;48.170;8.592;2023-04-28T07:07:19;8.90;;;8.40;;
17398;SDS011;8817;48.170;8.592;2023-04-28T07:09:46;8.95;;;8.35;;
17398;SDS011;8817;48.170;8.592;2023-04-28T07:12:13;8.82;;;8.23;;
17398;SDS011;8817;48.170;8.592;2023-04-28T07:14:40;9.00;;;8.30;;
17398;SDS011;8817;48.170;8.592;2023-04-28T07:17:07;8.30;;;7.80;;
17398;SDS011;8817;48.170;8.592;2023-04-28T07:19:34;8.70;;;8.10;;
17398;SDS011;8817;48.170;8.592;2023-04-28T07:22:00;8.80;;;8.30;;
17398;SDS011;8817;48.170;8.592;2023-04-28T07:24:29;8.63;;;8.13;;
17398;SDS011;8817;48.170;8.592;2023-04-28T07:26:56;9.07;;;8.27;;
17398;SDS011;8817;48.170;8.592;2023-04-28T07:29:23;8.70;;;8.00;;
17398;SDS011;8817;48.170;8.592;2023-04-28T07:31:52;9.10;;;8.40;;
17398;SDS011;8817;48.170;8.592;2023-04-28T07:34:19;9.10;;;8.57;;
17398;SDS011;8817;48.170;8.592;2023-04-28T07:36:46;9.00;;;8.40;;
17398;SDS011;8817;48.170;8.592;2023-04-28T07:39:13;8.70;;;8.15;;
17398;SDS011;8817;48.170;8.592;2023-04-28T07:41:42;9.50;;;8.57;;
17398;SDS011;8817;48.170;8.592;2023-04-28T07:44:09;8.52;;;8.02;;
17398;SDS011;8817;48.170;8.592;2023-04-28T07:46:36;9.00;;;8.47;;
17398;SDS011;8817;48.170;8.592;2023-04-28T07:49:03;8.60;;;7.90;;
17398;SDS011;8817;48.170;8.592;2023-04-28T07:51:30;8.20;;;7.70;;
17398;SDS011;8817;48.170;8.592;2023-04-28T07:53:57;8.35;;;7.85;;
17398;SDS011;8817;48.170;8.592;2023-04-28T07:56:24;8.70;;;8.10;;
17398;SDS011;8817;48.170;8.592;2023-04-28T07:58:52;8.50;;;7.90;;
17398;SDS011;8817;48.170;8.592;2023-04-28T08:01:19;8.10;;;7.63;;
17398;SDS011;8817;48.170;8.592;2023-04-28T08:03:46;7.95;;;7.47;;
17398;SDS011;8817;48.170;8.592;2023-04-28T08:06:13;8.00;;;7.60;;
17398;SDS011;8817;48.170;8.592;2023-04-28T08:08:40;8.35;;;7.85;;
17398;SDS011;8817;48.170;8.592;2023-04-28T08:11:07;8.25;;;7.80;;
17398;SDS011;8817;48.170;8.592;2023-04-28T08:13:34;8.23;;;7.82;;
17398;SDS011;8817;48.170;8.592;2023-04-28T08:16:02;8.18;;;7.78;;
17398;SDS011;8817;48.170;8.592;2023-04-28T08:18:30;7.95;;;7.55;;
17398;SDS011;8817;48.170;8.592;2023-04-28T08:20:57;7.90;;;7.50;;
17398;SDS011;8817;48.170;8.592;2023-04-28T08:23:24;8.18;;;7.70;;
17398;SDS011;8817;48.170;8.592;2023-04-28T08:25:52;8.10;;;7.70;;
17398;SDS011;8817;48.170;8.592;2023-04-28T08:28:19;8.50;;;7.70;;
17398;SDS011;8817;48.170;8.592;2023-04-28T08:30:46;8.40;;;7.90;;
17398;SDS011;8817;48.170;8.592;2023-04-28T08:33:14;8.00;;;7.60;;
17398;SDS011;8817;48.170;8.592;2023-04-28T08:35:41;8.07;;;7.68;;
17398;SDS011;8817;48.170;8.592;2023-04-28T08:38:08;8.70;;;8.20;;
17398;SDS011;8817;48.170;8.592;2023-04-28T08:40:38;7.90;;;7.50;;
17398;SDS011;8817;48.170;8.592;2023-04-28T08:43:04;8.27;;;7.88;;
17398;SDS011;8817;48.170;8.592;2023-04-28T08:45:34;8.10;;;7.70;;
17398;SDS011;8817;48.170;8.592;2023-04-28T08:48:06;8.20;;;7.80;;
17398;SDS011;8817;48.170;8.592;2023-04-28T08:50:49;7.90;;;7.60;;
17398;SDS011;8817;48.170;8.592;2023-04-28T08:53:20;7.82;;;7.53;;
17398;SDS011;8817;48.170;8.592;2023-04-28T08:55:49;7.80;;;7.50;;
17398;SDS011;8817;48.170;8.592;2023-04-28T08:58:19;7.90;;;7.60;;
17398;SDS011;8817;48.170;8.592;2023-04-28T09:00:47;7.93;;;7.53;;
17398;SDS011;8817;48.170;8.592;2023-04-28T09:03:16;8.02;;;7.72;;
17398;SDS011;8817;48.170;8.592;2023-04-28T09:05:42;7.90;;;7.60;;
17398;SDS011;8817;48.170;8.592;2023-04-28T09:08:09;8.00;;;7.70;;
17398;SDS011;8817;48.170;8.592;2023-04-28T09:10:37;8.15;;;7.75;;
17398;SDS011;8817;48.170;8.592;2023-04-28T09:13:04;8.00;;;7.70;;
17398;SDS011;8817;48.170;8.592;2023-04-28T09:15:31;8.50;;;8.10;;
17398;SDS011;8817;48.170;8.592;2023-04-28T09:18:00;7.78;;;7.47;;
17398;SDS011;8817;48.170;8.592;2023-04-28T09:20:30;7.90;;;7.60;;
17398;SDS011;8817;48.170;8.592;2023-04-28T09:23:11;8.20;;;7.82;;
17398;SDS011;8817;48.170;8.592;2023-04-28T09:25:40;8.10;;;7.80;;
17398;SDS011;8817;48.170;8.592;2023-04-28T09:28:20;7.70;;;7.40;;
17398;SDS011;8817;48.170;8.592;2023-04-28T09:30:48;7.60;;;7.30;;
17398;SDS011;8817;48.170;8.592;2023-04-28T09:33:15;7.40;;;7.10;;
17398;SDS011;8817;48.170;8.592;2023-04-28T09:35:43;7.80;;;7.40;;
17398;SDS011;8817;48.170;8.592;2023-04-28T09:38:11;7.95;;;7.63;;
17398;SDS011;8817;48.170;8.592;2023-04-28T09:40:48;7.88;;;7.50;;
17398;SDS011;8817;48.170;8.592;2023-04-28T09:43:22;7.65;;;7.35;;
17398;SDS011;8817;48.170;8.592;2023-04-28T09:45:53;7.78;;;7.47;;
17398;SDS011;8817;48.170;8.592;2023-04-28T09:48:27;7.90;;;7.50;;
17398;SDS011;8817;48.170;8.592;2023-04-28T09:50:57;7.43;;;7.13;;
17398;SDS011;8817;48.170;8.592;2023-04-28T09:53:25;7.43;;;7.13;;
17398;SDS011;8817;48.170;8.592;2023-04-28T09:55:53;7.68;;;7.38;;
17398;SDS011;8817;48.170;8.592;2023-04-28T09:58:21;7.80;;;7.50;;
17398;SDS011;8817;48.170;8.592;2023-04-28T10:00:51;7.78;;;7.38;;
17398;SDS011;8817;48.170;8.592;2023-04-28T10:03:20;7.70;;;7.40;;
17398;SDS011;8817;48.170;8.592;2023-04-28T10:05:49;7.72;;;7.43;;
17398;SDS011;8817;48.170;8.592;2023-04-28T10:08:18;8.00;;;7.70;;
17398;SDS011;8817;48.170;8.592;2023-04-28T10:10:47;7.40;;;7.10;;
17398;SDS011;8817;48.170;8.592;2023-04-28T10:13:15;7.60;;;7.10;;
17398;SDS011;8817;48.170;8.592;2023-04-28T10:15:43;7.70;;;7.38;;
17398;SDS011;8817;48.170;8.592;2023-04-28T10:18:11;7.57;;;7.28;;
17398;SDS011;8817;48.170;8.592;2023-04-28T10:20:39;7.40;;;7.10;;
17398;SDS011;8817;48.170;8.592;2023-04-28T10:23:16;8.00;;;7.40;;
17398;SDS011;8817;48.170;8.592;2023-04-28T10:25:56;7.57;;;7.28;;
17398;SDS011;8817;48.170;8.592;2023-04-28T10:28:24;7.40;;;7.10;;
17398;SDS011;8817;48.170;8.592;2023-04-28T10:31:07;7.60;;;7.30;;
17398;SDS011;8817;48.170;8.592;2023-04-28T10:33:35;7.63;;;7.32;;
17398;SDS011;8817;48.170;8.592;2023-04-28T10:36:03;7.78;;;7.38;;
17398;SDS011;8817;48.170;8.592;2023-04-28T10:38:32;8.05;;;7.65;;
17398;SDS011;8817;48.170;8.592;2023-04-28T10:41:00;8.38;;;7.97;;
17398;SDS011;8817;48.170;8.592;2023-04-28T10:43:37;8.45;;;7.95;;
17398;SDS011;8817;48.170;8.592;2023-04-28T10:46:05;8.13;;;7.72;;
17398;SDS011;8817;48.170;8.592;2023-04-28T10:51:23;7.63;;;7.30;;
17398;SDS011;8817;48.170;8.592;2023-04-28T10:54:12;8.23;;;7.80;;
17398;SDS011;8817;48.170;8.592;2023-04-28T10:59:45;7.78;;;7.38;;
17398;SDS011;8817;48.170;8.592;2023-04-28T11:05:14;7.75;;;7.45;;
17398;SDS011;8817;48.170;8.592;2023-04-28T11:11:20;7.45;;;7.15;;
17398;SDS011;8817;48.170;8.592;2023-04-28T11:13:49;8.27;;;7.78;;
17398;SDS011;8817;48.170;8.592;2023-04-28T11:16:17;7.75;;;7.45;;
17398;SDS011;8817;48.170;8.592;2023-04-28T11:18:49;6.70;;;6.50;;
17398;SDS011;8817;48.170;8.592;2023-04-28T11:21:18;6.68;;;6.47;;
17398;SDS011;8817;48.170;8.592;2023-04-28T11:23:45;7.28;;;6.97;;
17398;SDS011;8817;48.170;8.592;2023-04-28T11:26:12;6.40;;;6.20;;
17398;SDS011;8817;48.170;8.592;2023-04-28T11:28:47;6.85;;;6.57;;
17398;SDS011;8817;48.170;8.592;2023-04-28T11:31:16;7.47;;;7.18;;
17398;SDS011;8817;48.170;8.592;2023-04-28T11:33:45;6.82;;;6.60;;
17398;SDS011;8817;48.170;8.592;2023-04-28T11:36:21;6.70;;;6.50;;
17398;SDS011;8817;48.170;8.592;2023-04-28T11:38:53;6.50;;;6.30;;
17398;SDS011;8817;48.170;8.592;2023-04-28T11:41:21;6.78;;;6.50;;
17398;SDS011;8817;48.170;8.592;2023-04-28T11:43:50;6.50;;;6.30;;
17398;SDS011;8817;48.170;8.592;2023-04-28T11:46:17;6.60;;;6.18;;
17398;SDS011;8817;48.170;8.592;2023-04-28T11:48:46;6.22;;;6.03;;
17398;SDS011;8817;48.170;8.592;2023-04-28T11:51:29;6.30;;;6.10;;
17398;SDS011;8817;48.170;8.592;2023-04-28T11:53:57;6.25;;;6.05;;
17398;SDS011;8817;48.170;8.592;2023-04-28T11:56:24;6.50;;;6.30;;
17398;SDS011;8817;48.170;8.592;2023-04-28T11:59:05;6.80;;;6.50;;
17398;SDS011;8817;48.170;8.592;2023-04-28T12:01:42;5.90;;;5.75;;
17398;SDS011;8817;48.170;8.592;2023-04-28T12:04:11;5.72;;;5.53;;
17398;SDS011;8817;48.170;8.592;2023-04-28T12:06:38;6.10;;;5.90;;
17398;SDS011;8817;48.170;8.592;2023-04-28T12:09:14;5.50;;;5.40;;
17398;SDS011;8817;48.170;8.592;2023-04-28T12:11:53;6.32;;;6.13;;
17398;SDS011;8817;48.170;8.592;2023-04-28T12:14:22;6.10;;;5.90;;
17398;SDS011;8817;48.170;8.592;2023-04-28T12:16:50;5.82;;;5.63;;
17398;SDS011;8817;48.170;8.592;2023-04-28T12:19:17;5.80;;;5.70;;
17398;SDS011;8817;48.170;8.592;2023-04-28T12:24:28;5.45;;;5.35;;
17398;SDS011;8817;48.170;8.592;2023-04-28T12:29:42;5.57;;;5.47;;
17398;SDS011;8817;48.170;8.592;2023-04-28T12:32:11;5.90;;;5.70;;
17398;SDS011;8817;48.170;8.592;2023-04-28T12:34:38;5.20;;;5.10;;
17398;SDS011;8817;48.170;8.592;2023-04-28T12:37:06;5.43;;;5.18;;
17398;SDS011;8817;48.170;8.592;2023-04-28T12:39:33;5.85;;;5.65;;
17398;SDS011;8817;48.170;8.592;2023-04-28T12:42:02;5.50;;;5.30;;
17398;SDS011;8817;48.170;8.592;2023-04-28T12:44:33;5.07;;;4.97;;
17398;SDS011;8817;48.170;8.592;2023-04-28T12:47:03;5.45;;;5.35;;
17398;SDS011;8817;48.170;8.592;2023-04-28T12:49:31;5.28;;;5.07;;
17398;SDS011;8817;48.170;8.592;2023-04-28T12:51:59;5.50;;;5.25;;
17398;SDS011;8817;48.170;8.592;2023-04-28T12:54:26;5.68;;;5.57;;
17398;SDS011;8817;48.170;8.592;2023-04-28T12:56:53;5.45;;;5.35;;
17398;SDS011;8817;48.170;8.592;2023-04-28T12:59:20;5.40;;;5.20;;
17398;SDS011;8817;48.170;8.592;2023-04-28T13:01:47;5.07;;;4.97;;
17398;SDS011;8817;48.170;8.592;2023-04-28T13:04:16;5.20;;;5.10;;
17398;SDS011;8817;48.170;8.592;2023-04-28T13:06:43;5.82;;;5.40;;
17398;SDS011;8817;48.170;8.592;2023-04-28T13:09:10;5.00;;;4.90;;
17398;SDS011;8817;48.170;8.592;2023-04-28T13:11:37;5.50;;;5.30;;
17398;SDS011;8817;48.170;8.592;2023-04-28T13:14:04;5.70;;;5.50;;
17398;SDS011;8817;48.170;8.592;2023-04-28T13:16:32;5.30;;;5.20;;
17398;SDS011;8817;48.170;8.592;2023-04-28T13:18:59;5.82;;;5.63;;
17398;SDS011;8817;48.170;8.592;2023-04-28T13:21:27;5.90;;;5.60;;
17398;SDS011;8817;48.170;8.592;2023-04-28T13:23:54;5.72;;;5.53;;
17398;SDS011;8817;48.170;8.592;2023-04-28T13:26:21;5.45;;;5.30;;
17398;SDS011;8817;48.170;8.592;2023-04-28T13:28:49;5.50;;;5.30;;
17398;SDS011;8817;48.170;8.592;2023-04-28T13:31:16;5.60;;;5.43;;
17398;SDS011;8817;48.170;8.592;2023-04-28T13:33:43;5.60;;;5.50;;
17398;SDS011;8817;48.170;8.592;2023-04-28T13:36:10;5.40;;;5.30;;
17398;SDS011;8817;48.170;8.592;2023-04-28T13:38:38;5.88;;;5.68;;
17398;SDS011;8817;48.170;8.592;2023-04-28T13:41:05;5.88;;;5.68;;
17398;SDS011;8817;48.170;8.592;2023-04-28T13:43:32;5.60;;;5.50;;
17398;SDS011;8817;48.170;8.592;2023-04-28T13:46:00;5.60;;;5.40;;
17398;SDS011;8817;48.170;8.592;2023-04-28T13:48:31;5.63;;;5.43;;
17398;SDS011;8817;48.170;8.592;2023-04-28T13:50:58;5.32;;;5.22;;
17398;SDS011;8817;48.170;8.592;2023-04-28T13:53:25;5.65;;;5.45;;
17398;SDS011;8817;48.170;8.592;2023-04-28T13:55:53;5.25;;;5.05;;
17398;SDS011;8817;48.170;8.592;2023-04-28T13:58:21;5.50;;;5.22;;
17398;SDS011;8817;48.170;8.592;2023-04-28T14:00:48;5.55;;;5.28;;
17398;SDS011;8817;48.170;8.592;2023-04-28T14:03:16;5.18;;;4.97;;
17398;SDS011;8817;48.170;8.592;2023-04-28T14:05:43;5.53;;;5.38;;
17398;SDS011;8817;48.170;8.592;2023-04-28T14:08:10;5.10;;;5.00;;
17398;SDS011;8817;48.170;8.592;2023-04-28T14:10:37;5.40;;;5.20;;
17398;SDS011;8817;48.170;8.592;2023-04-28T14:13:06;5.20;;;5.10;;
17398;SDS011;8817;48.170;8.592;2023-04-28T14:15:33;5.18;;;5.00;;
17398;SDS011;8817;48.170;8.592;2023-04-28T14:18:00;5.30;;;5.20;;
17398;SDS011;8817;48.170;8.592;2023-04-28T14:20:27;5.45;;;5.28;;
17398;SDS011;8817;48.170;8.592;2023-04-28T14:22:55;5.60;;;5.40;;
17398;SDS011;8817;48.170;8.592;2023-04-28T14:25:22;8.65;;;5.40;;
17398;SDS011;8817;48.170;8.592;2023-04-28T14:27:50;5.50;;;5.30;;
17398;SDS011;8817;48.170;8.592;2023-04-28T14:30:19;5.85;;;5.55;;
17398;SDS011;8817;48.170;8.592;2023-04-28T14:32:46;5.88;;;5.50;;
17398;SDS011;8817;48.170;8.592;2023-04-28T14:35:13;5.70;;;5.50;;
17398;SDS011;8817;48.170;8.592;2023-04-28T14:37:41;5.90;;;5.40;;
17398;SDS011;8817;48.170;8.592;2023-04-28T14:40:09;5.60;;;5.30;;
17398;SDS011;8817;48.170;8.592;2023-04-28T14:42:36;5.85;;;5.65;;
17398;SDS011;8817;48.170;8.592;2023-04-28T14:45:03;5.32;;;5.00;;
17398;SDS011;8817;48.170;8.592;2023-04-28T14:47:32;5.80;;;5.40;;
17398;SDS011;8817;48.170;8.592;2023-04-28T14:49:59;5.20;;;5.10;;
17398;SDS011;8817;48.170;8.592;2023-04-28T14:52:26;6.30;;;5.85;;
17398;SDS011;8817;48.170;8.592;2023-04-28T14:54:55;5.20;;;5.00;;
17398;SDS011;8817;48.170;8.592;2023-04-28T14:57:23;5.03;;;4.93;;
17398;SDS011;8817;48.170;8.592;2023-04-28T14:59:51;5.50;;;5.30;;
17398;SDS011;8817;48.170;8.592;2023-04-28T15:02:18;5.43;;;5.22;;
17398;SDS011;8817;48.170;8.592;2023-04-28T15:04:51;5.07;;;4.97;;
17398;SDS011;8817;48.170;8.592;2023-04-28T15:07:19;5.25;;;5.05;;
17398;SDS011;8817;48.170;8.592;2023-04-28T15:09:46;5.20;;;5.10;;
17398;SDS011;8817;48.170;8.592;2023-04-28T15:12:13;5.53;;;5.30;;
17398;SDS011;8817;48.170;8.592;2023-04-28T15:14:40;5.95;;;5.63;;
17398;SDS011;8817;48.170;8.592;2023-04-28T15:17:07;5.20;;;5.10;;
17398;SDS011;8817;48.170;8.592;2023-04-28T15:19:34;5.30;;;5.10;;
17398;SDS011;8817;48.170;8.592;2023-04-28T15:22:03;5.45;;;5.25;;
17398;SDS011;8817;48.170;8.592;2023-04-28T15:24:30;5.50;;;5.20;;